Time;durP1;ratioP1;P1;durP2;ratioP2;P2;SDS_P1;SDS_P2;PMS_P1;PMS_P2;Temp;Humidity;BMP_temperature;BMP_pressure;BME280_temperature;BME280_humidity;BME280_pressure;Samples;Min_cycle;Max_cycle;Signal;HPM_P1;HPM_P2
2023/01/14 00:00:50;;;;;;;6.47;1.10;;;;;;;8.32;85.38;100529.81;5054003;28;20549;-69
2023/01/14 00:03:16;;;;;;;6.00;1.70;;;;;;;8.27;85.16;100532.53;5053979;28;20446;-69
2023/01/14 00:05:44;;;;;;;7.67;1.40;;;;;;;8.26;85.69;100539.03;5054012;28;20474;-68
2023/01/14 00:08:11;;;;;;;5.47;1.10;;;;;;;8.16;87.11;100541.06;5054008;28;20525;-69
2023/01/14 00:10:37;;;;;;;8.57;1.27;;;;;;;8.14;87.38;100549.41;5053403;28;20509;-68
2023/01/14 00:13:04;;;;;;;5.00;1.17;;;;;;;8.24;86.70;100543.13;5053817;28;20447;-70
2023/01/14 00:15:30;;;;;;;7.90;1.50;;;;;;;8.18;86.50;100545.06;5053619;28;20575;-69
2023/01/14 00:17:57;;;;;;;7.20;1.30;;;;;;;8.15;86.82;100553.75;5053734;28;20629;-68
2023/01/14 00:20:24;;;;;;;8.63;1.83;;;;;;;8.12;87.28;100551.59;5053591;28;20462;-69
2023/01/14 00:22:52;;;;;;;7.90;1.43;;;;;;;8.16;87.61;100555.34;5053678;28;20523;-69
2023/01/14 00:25:20;;;;;;;9.87;1.50;;;;;;;8.20;87.42;100559.09;5053264;28;20438;-69
2023/01/14 00:27:47;;;;;;;6.47;1.23;;;;;;;8.22;86.71;100550.69;5053265;28;20951;-69
2023/01/14 00:30:13;;;;;;;4.67;1.07;;;;;;;8.23;86.86;100558.50;5053320;28;20466;-69
2023/01/14 00:32:40;;;;;;;7.40;1.43;;;;;;;8.26;86.57;100567.91;5053373;28;20508;-69
2023/01/14 00:35:07;;;;;;;4.50;0.83;;;;;;;8.28;87.05;100563.84;5053265;28;20477;-70
2023/01/14 00:37:33;;;;;;;5.90;1.30;;;;;;;8.27;86.10;100564.94;5053382;28;20430;-68
2023/01/14 00:40:01;;;;;;;8.17;1.40;;;;;;;8.30;85.98;100577.84;5053320;28;20462;-69
2023/01/14 00:42:28;;;;;;;16.63;1.53;;;;;;;8.28;86.42;100571.94;5053315;28;20481;-69
2023/01/14 00:44:54;;;;;;;6.23;1.00;;;;;;;8.34;86.12;100567.28;5053297;28;20449;-69
2023/01/14 00:47:21;;;;;;;6.97;1.27;;;;;;;8.34;86.53;100580.78;5053138;28;20449;-68
2023/01/14 00:49:48;;;;;;;4.40;1.17;;;;;;;8.34;86.32;100583.50;5053118;28;20458;-69
2023/01/14 00:52:14;;;;;;;6.73;0.87;;;;;;;8.35;86.04;100580.50;5053022;28;20529;-69
2023/01/14 00:54:41;;;;;;;4.57;1.07;;;;;;;8.42;86.24;100595.59;5052894;28;20579;-69
2023/01/14 00:57:09;;;;;;;7.10;1.80;;;;;;;8.40;86.63;100595.06;5052845;28;20485;-69
2023/01/14 00:59:35;;;;;;;4.70;1.00;;;;;;;8.45;86.48;100595.81;5052981;28;20494;-69
2023/01/14 01:02:02;;;;;;;4.57;0.63;;;;;;;8.41;86.21;100599.34;5053049;28;20446;-69
2023/01/14 01:04:28;;;;;;;4.60;1.03;;;;;;;8.45;86.35;100605.81;5052922;28;20442;-68
2023/01/14 01:06:55;;;;;;;7.13;1.40;;;;;;;8.52;86.37;100614.38;5053003;28;20446;-68
2023/01/14 01:09:22;;;;;;;7.30;1.40;;;;;;;8.46;86.45;100627.13;5052542;28;20490;-68
2023/01/14 01:11:48;;;;;;;4.60;0.90;;;;;;;8.48;86.56;100610.63;5075418;22;20563;-76
2023/01/14 01:14:16;;;;;;;5.07;1.00;;;;;;;8.52;86.59;100611.66;5073109;28;20589;-76
2023/01/14 01:16:43;;;;;;;4.90;1.40;;;;;;;8.55;87.07;100620.00;5073324;28;20873;-76
2023/01/14 01:19:10;;;;;;;12.13;1.30;;;;;;;8.55;86.44;100622.72;5080544;22;20510;-76
2023/01/14 01:21:36;;;;;;;4.23;0.80;;;;;;;8.54;87.05;100617.56;5053260;28;20676;-77
2023/01/14 01:24:03;;;;;;;4.40;1.00;;;;;;;8.50;87.14;100627.34;5053172;28;20545;-77
2023/01/14 01:26:30;;;;;;;6.93;1.10;;;;;;;8.53;87.27;100632.16;5053185;28;20536;-76
2023/01/14 01:28:58;;;;;;;6.00;1.10;;;;;;;8.63;86.57;100623.16;5053146;28;20446;-77
2023/01/14 01:31:28;;;;;;;5.10;1.07;;;;;;;8.55;87.20;100630.00;5052890;28;20508;-77
2023/01/14 01:33:55;;;;;;;4.93;1.10;;;;;;;8.54;87.42;100622.97;5053499;28;20565;-77
2023/01/14 01:36:24;;;;;;;5.60;0.97;;;;;;;8.48;88.55;100633.03;5053021;28;20575;-77
2023/01/14 01:38:51;;;;;;;5.60;1.37;;;;;;;8.43;89.24;100638.50;5052879;28;20495;-77
2023/01/14 01:41:21;;;;;;;7.50;1.07;;;;;;;8.41;89.38;100639.84;5052604;28;20543;-76
2023/01/14 01:44:07;;;;;;;8.83;1.10;;;;;;;8.35;90.09;100642.56;5052810;28;20537;-77
2023/01/14 01:46:36;;;;;;;8.23;1.30;;;;;;;8.34;91.54;100638.28;5052932;28;20438;-76
2023/01/14 01:49:08;;;;;;;7.80;1.40;;;;;;;8.21;93.20;100630.03;5052909;28;20446;-76
2023/01/14 01:51:42;;;;;;;6.27;1.13;;;;;;;8.15;94.42;100631.97;5052843;28;20908;-77
2023/01/14 01:54:09;;;;;;;5.20;1.30;;;;;;;8.09;94.57;100633.09;5053043;28;20450;-77
2023/01/14 01:56:39;;;;;;;5.97;1.33;;;;;;;8.13;93.16;100638.72;5053003;28;20448;-77
2023/01/14 01:59:11;;;;;;;5.80;1.40;;;;;;;8.12;92.69;100640.63;5052847;28;20850;-77
2023/01/14 02:01:41;;;;;;;4.77;1.23;;;;;;;8.15;92.77;100642.78;5053043;28;20426;-77
2023/01/14 02:04:08;;;;;;;4.87;1.00;;;;;;;8.17;92.81;100647.88;5052913;28;20443;-77
2023/01/14 02:06:35;;;;;;;5.87;1.33;;;;;;;8.23;92.13;100647.53;5053165;28;20446;-77
2023/01/14 02:09:02;;;;;;;5.20;1.20;;;;;;;8.21;92.15;100651.63;5052919;28;20482;-77
2023/01/14 02:11:56;;;;;;;5.70;1.43;;;;;;;8.28;90.64;100666.41;5052746;28;20453;-77
2023/01/14 02:14:36;;;;;;;6.50;1.40;;;;;;;8.31;91.09;100662.31;5020557;28;20469;-78
2023/01/14 02:17:14;;;;;;;5.53;1.40;;;;;;;8.42;90.35;100673.88;5053718;28;20437;-77
2023/01/14 02:20:01;;;;;;;10.83;1.50;;;;;;;8.39;91.55;100677.13;5053178;28;20624;-75
2023/01/14 02:22:43;;;;;;;7.70;1.27;;;;;;;8.32;92.74;100690.91;5056435;28;20435;-76
2023/01/14 02:25:40;;;;;;;7.90;1.30;;;;;;;8.19;93.23;100694.25;5056211;28;20453;-76
2023/01/14 02:28:17;;;;;;;6.27;1.17;;;;;;;8.04;94.47;100690.59;5056269;28;20469;-76
2023/01/14 02:30:54;;;;;;;4.30;0.87;;;;;;;8.00;94.50;100686.03;5056131;28;20533;-76
2023/01/14 02:33:41;;;;;;;4.90;1.00;;;;;;;7.97;94.36;100687.44;5056347;28;20853;-77
2023/01/14 02:36:16;;;;;;;6.67;1.07;;;;;;;7.96;94.36;100698.47;5055661;28;20549;-77
2023/01/14 02:38:50;;;;;;;6.23;1.20;;;;;;;8.00;95.02;100700.31;5056054;28;20854;-77
2023/01/14 02:44:06;;;;;;;5.23;1.43;;;;;;;7.97;97.67;100716.25;5055910;28;20466;-76
2023/01/14 02:44:11;;;;;;;7.80;1.00;;;;;;;7.78;100.00;100706.13;5055534;28;20419;-77
2023/01/14 02:46:44;;;;;;;5.90;1.03;;;;;;;7.66;100.00;100696.78;5055873;28;20488;-76
2023/01/14 02:49:15;;;;;;;7.33;1.10;;;;;;;7.54;100.00;100705.22;5055891;28;20874;-76
2023/01/14 02:51:43;;;;;;;5.40;1.37;;;;;;;7.53;100.00;100711.69;5055533;28;20426;-76
2023/01/14 02:54:11;;;;;;;6.60;1.50;;;;;;;7.54;100.00;100716.00;5055844;28;20442;-76
2023/01/14 02:56:38;;;;;;;4.57;1.13;;;;;;;7.55;100.00;100720.28;5055298;28;20482;-76
2023/01/14 02:59:37;;;;;;;5.30;1.10;;;;;;;7.52;100.00;100735.13;5055274;28;20956;-76
2023/01/14 03:02:25;;;;;;;9.00;1.47;;;;;;;7.48;100.00;100720.63;5043524;28;20546;-76
2023/01/14 03:05:36;;;;;;;6.00;1.17;;;;;;;7.37;100.00;100718.22;5055295;28;20505;-76
2023/01/14 03:08:10;;;;;;;4.87;1.17;;;;;;;7.34;100.00;100724.97;4993950;28;20480;-76
2023/01/14 03:10:42;;;;;;;4.43;1.17;;;;;;;7.34;100.00;100725.75;4993792;28;20552;-76
2023/01/14 03:13:15;;;;;;;6.60;1.50;;;;;;;7.29;100.00;100728.47;5030430;28;20521;-76
2023/01/14 03:15:48;;;;;;;4.13;0.90;;;;;;;7.31;100.00;100736.31;5055075;28;21045;-76
2023/01/14 03:18:21;;;;;;;4.97;1.10;;;;;;;7.26;100.00;100742.53;5055138;28;20529;-77
2023/01/14 03:20:54;;;;;;;4.27;1.00;;;;;;;7.21;100.00;100734.44;5054767;28;20486;-77
2023/01/14 03:23:24;;;;;;;5.10;1.13;;;;;;;7.22;100.00;100738.75;5055270;28;20513;-76
2023/01/14 03:25:53;;;;;;;4.63;1.03;;;;;;;7.16;100.00;100739.84;5054721;28;20438;-76
2023/01/14 03:28:24;;;;;;;4.40;1.10;;;;;;;7.20;100.00;100732.81;5054859;28;20489;-76
2023/01/14 03:30:57;;;;;;;7.00;1.13;;;;;;;7.22;100.00;100729.88;5054920;28;20498;-76
2023/01/14 03:33:30;;;;;;;4.00;0.70;;;;;;;7.25;100.00;100743.59;5055223;28;20455;-76
2023/01/14 03:35:58;;;;;;;5.27;1.33;;;;;;;7.25;100.00;100737.38;5055146;28;20477;-76
2023/01/14 03:38:30;;;;;;;6.13;1.47;;;;;;;7.30;100.00;100746.28;5054732;28;20453;-76
2023/01/14 03:40:59;;;;;;;4.97;1.10;;;;;;;7.32;100.00;100746.00;5054497;28;20458;-76
2023/01/14 03:43:33;;;;;;;4.57;0.90;;;;;;;7.37;100.00;100743.28;5054827;28;20450;-76
2023/01/14 03:46:02;;;;;;;7.63;1.13;;;;;;;7.38;100.00;100742.19;5054841;28;20422;-76
2023/01/14 03:48:30;;;;;;;4.13;0.90;;;;;;;7.43;100.00;100749.44;5054394;28;20442;-76
2023/01/14 03:51:07;;;;;;;7.00;1.10;;;;;;;7.48;100.00;100754.81;5054511;28;20446;-76
2023/01/14 03:53:38;;;;;;;6.63;1.27;;;;;;;7.45;100.00;100753.50;5054665;28;20419;-76
2023/01/14 03:56:15;;;;;;;5.10;1.00;;;;;;;7.51;100.00;100755.06;5054465;28;20553;-76
2023/01/14 03:58:47;;;;;;;6.73;1.30;;;;;;;7.53;100.00;100754.81;5054526;28;20446;-76
2023/01/14 04:01:18;;;;;;;5.40;0.83;;;;;;;7.65;100.00;100755.28;5054165;28;20964;-75
2023/01/14 04:03:47;;;;;;;4.90;1.23;;;;;;;7.67;100.00;100765.81;5054172;28;20517;-76
2023/01/14 04:06:14;;;;;;;12.77;1.77;;;;;;;7.57;100.00;100759.38;5054330;28;20441;-75
2023/01/14 04:08:41;;;;;;;4.60;1.30;;;;;;;7.58;100.00;100762.88;5054269;28;20497;-76
2023/01/14 04:11:10;;;;;;;5.10;0.97;;;;;;;7.56;100.00;100770.41;5054153;28;20462;-76
2023/01/14 04:16:20;;;;;;;5.77;1.07;;;;;;;7.53;100.00;100771.00;5053879;28;20874;-76
2023/01/14 04:18:48;;;;;;;4.13;0.90;;;;;;;7.55;100.00;100769.63;5054006;28;20868;-76
2023/01/14 04:21:15;;;;;;;4.20;0.90;;;;;;;7.53;100.00;100771.78;5053591;28;20482;-76
2023/01/14 04:23:41;;;;;;;4.13;0.80;;;;;;;7.56;100.00;100778.50;5053735;28;20850;-76
2023/01/14 04:26:09;;;;;;;5.30;1.23;;;;;;;7.56;100.00;100776.59;5054047;28;20445;-76
2023/01/14 04:28:36;;;;;;;4.20;0.87;;;;;;;7.51;100.00;100773.13;5053749;28;20528;-76
2023/01/14 04:31:02;;;;;;;4.93;1.03;;;;;;;7.51;100.00;100770.44;5053572;28;20516;-76
2023/01/14 04:33:29;;;;;;;5.00;1.17;;;;;;;7.57;100.00;100777.44;5053965;28;20477;-76
2023/01/14 04:35:57;;;;;;;4.83;1.30;;;;;;;7.61;100.00;100783.06;5053678;28;20581;-76
2023/01/14 04:38:24;;;;;;;6.30;1.70;;;;;;;7.63;100.00;100772.81;5053805;28;20456;-76
2023/01/14 04:40:51;;;;;;;8.03;0.97;;;;;;;7.72;100.00;100784.66;5053801;28;20476;-76
2023/01/14 04:43:18;;;;;;;7.50;1.30;;;;;;;7.71;100.00;100788.44;5052975;28;21003;-76
2023/01/14 04:45:45;;;;;;;6.50;1.50;;;;;;;7.68;98.52;100789.78;5053609;28;20448;-76
2023/01/14 04:48:11;;;;;;;4.70;1.10;;;;;;;7.75;98.54;100789.50;5053684;28;20524;-76
2023/01/14 04:50:44;;;;;;;5.90;1.03;;;;;;;7.78;97.82;100789.72;5053621;28;20472;-76
2023/01/14 04:53:13;;;;;;;4.20;1.00;;;;;;;7.80;98.63;100792.97;5053560;28;20439;-76
2023/01/14 04:55:42;;;;;;;4.20;0.90;;;;;;;7.84;98.46;100793.22;5053486;28;20497;-76
2023/01/14 04:58:10;;;;;;;5.67;1.10;;;;;;;7.86;97.56;100798.31;5053357;28;20526;-77
2023/01/14 05:00:38;;;;;;;4.20;1.10;;;;;;;7.92;96.35;100803.41;5053471;28;20466;-76
2023/01/14 05:03:05;;;;;;;4.50;1.10;;;;;;;7.95;97.00;100802.84;5053771;28;20468;-76
2023/01/14 05:05:32;;;;;;;4.70;1.07;;;;;;;7.93;97.25;100807.75;5053162;28;20529;-76
2023/01/14 05:07:59;;;;;;;4.30;1.00;;;;;;;7.92;97.05;100799.91;5053138;28;20446;-77
2023/01/14 05:10:27;;;;;;;4.70;1.30;;;;;;;7.96;96.48;100807.16;5053038;28;20474;-76
2023/01/14 05:12:57;;;;;;;4.93;1.03;;;;;;;8.01;96.56;100814.41;5053383;28;20439;-75
2023/01/14 05:15:25;;;;;;;4.80;1.10;;;;;;;8.03;95.59;100804.19;5053001;28;21053;-76
2023/01/14 05:17:51;;;;;;;4.30;0.90;;;;;;;8.03;94.57;100817.66;5053248;28;20524;-76
2023/01/14 05:20:19;;;;;;;5.60;1.37;;;;;;;8.01;94.79;100819.81;5052946;28;20476;-76
2023/01/14 05:22:46;;;;;;;4.80;1.00;;;;;;;8.04;94.62;100820.06;5052970;28;20521;-76
2023/01/14 05:25:12;;;;;;;4.30;0.83;;;;;;;8.08;92.99;100823.03;5052948;28;20513;-76
2023/01/14 05:27:40;;;;;;;4.30;1.20;;;;;;;8.11;93.82;100827.88;5052904;28;20499;-76
2023/01/14 05:30:08;;;;;;;6.70;1.13;;;;;;;8.12;92.89;100821.38;5053162;28;20472;-76
2023/01/14 05:32:35;;;;;;;5.30;1.13;;;;;;;8.12;92.82;100826.78;5053207;28;20438;-76
2023/01/14 05:35:02;;;;;;;4.90;1.60;;;;;;;8.15;92.54;100822.72;5052724;28;20993;-76
2023/01/14 05:37:28;;;;;;;5.50;1.17;;;;;;;8.13;92.88;100833.78;5053128;28;20640;-76
2023/01/14 05:39:55;;;;;;;4.90;0.90;;;;;;;8.13;92.73;100828.38;5052879;28;20446;-76
2023/01/14 05:47:54;;;;;;;5.90;1.10;;;;;;;8.22;91.43;100836.72;5052918;28;20415;-76
2023/01/14 05:50:20;;;;;;;6.47;1.10;;;;;;;8.23;90.15;100836.41;5052867;28;20513;-76
2023/01/14 05:52:47;;;;;;;4.53;1.20;;;;;;;8.23;90.69;100832.91;5053026;28;20474;-76
2023/01/14 05:55:14;;;;;;;6.60;1.50;;;;;;;8.31;89.34;100840.44;5054057;28;20450;-76
2023/01/14 05:57:41;;;;;;;4.60;0.83;;;;;;;8.32;89.11;100840.16;5056495;28;20481;-76
2023/01/14 06:06:20;;;;;;;4.53;0.90;;;;;;;8.29;89.82;100843.41;5056720;28;20549;-76
2023/01/14 06:08:25;;;;;;;4.13;0.70;;;;;;;8.32;87.69;100848.25;5056232;28;20433;-76
2023/01/14 06:10:52;;;;;;;6.10;1.00;;;;;;;8.30;88.13;100841.53;5056487;28;20470;-76
2023/01/14 06:13:21;;;;;;;5.60;1.20;;;;;;;8.33;88.87;100855.25;5056421;28;20435;-76
2023/01/14 06:15:51;;;;;;;4.23;0.93;;;;;;;8.38;87.41;100850.97;5056308;28;20576;-76
2023/01/14 06:18:21;;;;;;;4.83;1.00;;;;;;;8.39;87.49;100858.75;5056433;28;20842;-76
2023/01/14 06:20:48;;;;;;;7.63;1.43;;;;;;;8.45;87.37;100856.84;5056144;28;20497;-76
2023/01/14 06:23:15;;;;;;;6.00;1.00;;;;;;;8.42;87.11;100862.81;5056154;28;20434;-76
2023/01/14 06:25:43;;;;;;;7.90;1.13;;;;;;;8.45;87.50;100860.34;5056425;28;20486;-76
2023/01/14 06:28:10;;;;;;;6.47;1.40;;;;;;;8.35;87.68;100869.28;5056498;28;20450;-76
2023/01/14 06:30:36;;;;;;;5.00;1.17;;;;;;;8.31;89.56;100868.22;5056145;28;20548;-76
2023/01/14 06:33:06;;;;;;;7.83;1.47;;;;;;;8.25;89.71;100858.53;5055798;28;20935;-76
2023/01/14 06:35:32;;;;;;;5.40;1.47;;;;;;;8.26;89.59;100859.34;5056129;28;20447;-76
2023/01/14 06:37:59;;;;;;;5.50;1.40;;;;;;;8.25;89.35;100855.84;5056064;28;20473;-76
2023/01/14 06:40:26;;;;;;;6.17;1.20;;;;;;;8.23;90.29;100849.91;5055933;28;20553;-76
2023/01/14 06:42:53;;;;;;;6.03;0.97;;;;;;;8.23;90.13;100859.91;5055893;28;20446;-76
2023/01/14 06:45:20;;;;;;;4.73;0.80;;;;;;;8.19;90.57;100865.06;5055618;28;20537;-76
2023/01/14 06:47:47;;;;;;;4.07;0.83;;;;;;;8.22;90.14;100864.50;5056138;28;20435;-76
2023/01/14 06:50:17;;;;;;;8.40;1.07;;;;;;;8.20;90.49;100865.88;5055792;28;20470;-76
2023/01/14 06:52:43;;;;;;;5.93;1.37;;;;;;;8.21;89.98;100873.69;5055941;28;20537;-76
2023/01/14 06:55:10;;;;;;;7.63;1.43;;;;;;;8.23;90.15;100860.69;5055828;28;20474;-76
2023/01/14 06:57:37;;;;;;;8.50;1.23;;;;;;;8.18;90.85;100855.34;5055678;28;20914;-76
2023/01/14 07:00:04;;;;;;;7.10;1.00;;;;;;;8.18;91.28;100868.81;5055657;28;20565;-75
2023/01/14 07:02:31;;;;;;;5.03;1.00;;;;;;;8.18;91.80;100878.81;5055659;28;20525;-76
2023/01/14 07:04:57;;;;;;;6.83;1.23;;;;;;;8.13;93.23;100868.84;5055632;28;20474;-76
2023/01/14 07:07:25;;;;;;;4.10;0.70;;;;;;;8.02;95.98;100880.78;5054952;28;20931;-76
2023/01/14 07:09:52;;;;;;;5.30;0.97;;;;;;;7.96;97.68;100881.88;5055198;28;20541;-76
2023/01/14 07:12:19;;;;;;;4.40;0.93;;;;;;;7.86;98.89;100876.53;5055071;28;20958;-76
2023/01/14 07:14:45;;;;;;;4.27;1.00;;;;;;;7.74;99.63;100877.63;5055419;28;20538;-76
2023/01/14 07:17:12;;;;;;;4.20;0.80;;;;;;;7.68;100.00;100867.16;5054911;28;20540;-76
2023/01/14 07:19:39;;;;;;;6.07;1.20;;;;;;;7.63;100.00;100861.78;5055568;28;20543;-77
2023/01/14 07:22:05;;;;;;;4.37;0.70;;;;;;;7.56;100.00;100868.25;5055964;28;20939;-76
2023/01/14 07:24:33;;;;;;;6.70;1.30;;;;;;;7.52;100.00;100869.06;5054929;28;20509;-76
2023/01/14 07:27:00;;;;;;;4.90;1.37;;;;;;;7.49;100.00;100875.03;5055311;28;20524;-77
2023/01/14 07:29:27;;;;;;;5.67;1.20;;;;;;;7.47;100.00;100874.47;5055331;28;20542;-77
2023/01/14 07:31:53;;;;;;;5.33;1.27;;;;;;;7.44;100.00;100873.16;5055152;28;20931;-77
2023/01/14 07:34:20;;;;;;;7.50;1.10;;;;;;;7.46;100.00;100870.97;5055436;28;20446;-77
2023/01/14 07:36:47;;;;;;;4.57;1.00;;;;;;;7.45;100.00;100865.88;5054865;28;20923;-77
2023/01/14 07:39:13;;;;;;;4.73;1.07;;;;;;;7.42;100.00;100855.63;5054926;28;20442;-77
2023/01/14 07:41:41;;;;;;;5.93;1.13;;;;;;;7.40;100.00;100855.91;5054706;28;20999;-77
2023/01/14 07:44:08;;;;;;;6.70;0.87;;;;;;;7.40;100.00;100863.19;5054850;28;20446;-77
2023/01/14 07:46:35;;;;;;;4.40;1.00;;;;;;;7.40;100.00;100868.59;5055011;28;20609;-77
2023/01/14 07:49:01;;;;;;;5.17;1.17;;;;;;;7.37;100.00;100863.75;5055223;28;21030;-77
2023/01/14 07:51:28;;;;;;;4.63;1.10;;;;;;;7.39;100.00;100864.25;5056882;28;20446;-77
2023/01/14 07:53:55;;;;;;;5.30;1.10;;;;;;;7.36;100.00;100862.94;5055473;28;20487;-77
2023/01/14 07:56:21;;;;;;;4.90;1.23;;;;;;;7.34;100.00;100857.78;5054758;28;20477;-78
2023/01/14 07:58:49;;;;;;;4.60;0.90;;;;;;;7.36;100.00;100862.13;5054992;28;20443;-77
2023/01/14 08:01:16;;;;;;;5.83;1.27;;;;;;;7.32;100.00;100862.66;5054407;28;20534;-79
2023/01/14 08:03:43;;;;;;;4.30;0.90;;;;;;;7.36;100.00;100862.94;5057185;28;20816;-78
2023/01/14 08:06:09;;;;;;;6.70;1.60;;;;;;;7.43;100.00;100857.25;5058792;28;20453;-79
2023/01/14 08:08:37;;;;;;;5.43;1.33;;;;;;;7.41;100.00;100849.44;5061849;28;20442;-78
2023/01/14 08:11:04;;;;;;;5.07;1.20;;;;;;;7.44;100.00;100853.50;5059677;28;21010;-77
2023/01/14 08:13:31;;;;;;;5.10;1.10;;;;;;;7.44;100.00;100875.06;5055817;28;20495;-78
2023/01/14 08:16:02;;;;;;;4.83;1.27;;;;;;;7.46;100.00;100868.28;5054879;28;20861;-77
2023/01/14 08:18:31;;;;;;;4.50;0.90;;;;;;;7.51;100.00;100854.78;5057133;28;20447;-77
2023/01/14 08:20:58;;;;;;;5.33;0.90;;;;;;;7.52;100.00;100850.22;5056666;28;20626;-78
2023/01/14 08:23:25;;;;;;;5.70;1.40;;;;;;;7.53;100.00;100857.25;5057557;28;20449;-78
2023/01/14 08:25:51;;;;;;;7.57;1.97;;;;;;;7.57;100.00;100847.53;5059048;28;20478;-77
2023/01/14 08:28:18;;;;;;;9.77;1.20;;;;;;;7.63;100.00;100851.81;5057171;28;20518;-77
2023/01/14 08:30:45;;;;;;;5.13;0.97;;;;;;;7.65;99.96;100846.13;5057609;28;20470;-76
2023/01/14 08:33:13;;;;;;;4.23;1.00;;;;;;;7.64;98.92;100845.31;5061303;28;20462;-78
2023/01/14 08:35:40;;;;;;;8.17;1.10;;;;;;;7.67;98.76;100847.47;5061333;28;20474;-79
2023/01/14 08:38:07;;;;;;;5.30;0.70;;;;;;;7.72;97.01;100844.78;5061370;28;20675;-79
2023/01/14 08:40:34;;;;;;;6.67;1.33;;;;;;;7.76;96.54;100856.63;5060749;28;20506;-78
2023/01/14 08:43:01;;;;;;;4.53;1.13;;;;;;;7.84;95.90;100857.94;5060794;28;20446;-78
2023/01/14 08:45:27;;;;;;;4.43;0.97;;;;;;;7.88;96.08;100860.88;5060595;28;20481;-78
2023/01/14 08:47:54;;;;;;;6.00;1.27;;;;;;;7.93;95.69;100860.88;5061957;28;20465;-78
2023/01/14 08:50:22;;;;;;;4.73;0.80;;;;;;;8.01;95.04;100863.81;5061373;28;20806;-78
2023/01/14 08:52:48;;;;;;;5.17;0.80;;;;;;;8.05;93.71;100872.13;5061539;28;20493;-79
2023/01/14 08:55:15;;;;;;;12.20;1.20;;;;;;;8.08;92.38;100861.59;5059938;28;20533;-78
2023/01/14 08:57:42;;;;;;;5.20;0.83;;;;;;;8.12;92.49;100859.16;5058993;28;20508;-78
2023/01/14 09:00:10;;;;;;;9.37;1.57;;;;;;;8.17;92.20;100861.03;5059821;28;20497;-79
2023/01/14 09:02:36;;;;;;;7.50;1.20;;;;;;;8.15;91.58;100866.72;5059205;28;20434;-78
2023/01/14 09:05:13;;;;;;;4.83;0.97;;;;;;;8.23;92.63;100863.41;5068028;22;20450;-77
2023/01/14 09:18:38;;;;;;;3.90;0.70;;;;;;;8.45;89.92;100870.31;5056690;28;20494;-77
2023/01/14 09:21:05;;;;;;;4.57;1.07;;;;;;;8.48;89.09;100867.88;5054924;28;20473;-77
2023/01/14 09:23:33;;;;;;;9.70;1.53;;;;;;;8.53;88.09;100865.16;5055693;28;20434;-78
2023/01/14 09:26:00;;;;;;;4.57;0.83;;;;;;;8.55;87.94;100867.59;5053980;28;20494;-78
2023/01/14 09:28:27;;;;;;;6.13;1.03;;;;;;;8.51;87.75;100853.84;5053208;28;21054;-77
2023/01/14 09:30:53;;;;;;;8.53;1.50;;;;;;;8.54;88.07;100857.84;5057318;28;20458;-77
2023/01/14 09:33:20;;;;;;;10.43;0.97;;;;;;;8.55;88.79;100864.88;5058516;28;20947;-77
2023/01/14 09:35:47;;;;;;;4.60;1.07;;;;;;;8.60;87.83;100864.84;5058319;28;20524;-77
2023/01/14 09:38:13;;;;;;;5.73;1.07;;;;;;;8.61;87.82;100852.94;5061596;28;20486;-78
2023/01/14 09:40:41;;;;;;;9.70;1.77;;;;;;;8.64;87.47;100863.19;5061623;28;20494;-78
2023/01/14 09:43:16;;;;;;;5.60;1.10;;;;;;;8.72;86.65;100857.22;5061495;28;20876;-78
2023/01/14 09:45:43;;;;;;;4.90;0.80;;;;;;;8.76;85.62;100860.13;5058791;28;20425;-77
2023/01/14 09:48:14;;;;;;;5.03;1.20;;;;;;;8.78;86.05;100850.66;5057202;28;20915;-77
2023/01/14 09:50:51;;;;;;;13.20;1.00;;;;;;;8.81;85.28;100839.31;5057216;28;20549;-77
2023/01/14 09:53:37;;;;;;;4.70;0.90;;;;;;;8.79;84.31;100829.84;5058145;28;20426;-78
2023/01/14 09:56:13;;;;;;;4.13;0.80;;;;;;;8.78;84.39;100823.66;5057460;28;20501;-77
2023/01/14 09:58:50;;;;;;;5.47;0.80;;;;;;;8.80;83.51;100815.25;5058060;28;20516;-78
2023/01/14 10:01:22;;;;;;;9.70;1.27;;;;;;;8.76;83.39;100808.81;5060691;28;20469;-79
2023/01/14 10:03:55;;;;;;;8.13;0.90;;;;;;;8.82;83.61;100805.00;5061938;28;20916;-78
2023/01/14 10:06:22;;;;;;;4.30;1.00;;;;;;;8.85;83.55;100801.69;5060791;28;20450;-78
2023/01/14 10:08:54;;;;;;;7.10;0.63;;;;;;;8.88;81.97;100795.75;5060789;28;20529;-78
2023/01/14 10:11:24;;;;;;;8.87;1.40;;;;;;;8.88;81.88;100787.63;5059704;28;20497;-78
2023/01/14 10:14:02;;;;;;;4.03;0.67;;;;;;;8.96;81.99;100786.22;5060798;28;20525;-78
2023/01/14 10:16:33;;;;;;;13.30;0.90;;;;;;;9.02;80.73;100779.66;5058574;28;20426;-77
2023/01/14 10:19:05;;;;;;;6.63;1.07;;;;;;;9.11;80.49;100780.66;5058792;28;20472;-77
2023/01/14 10:21:39;;;;;;;8.10;1.10;;;;;;;9.13;80.88;100769.59;5058014;28;20430;-77
2023/01/14 10:24:09;;;;;;;5.50;1.23;;;;;;;9.23;80.75;100766.75;5058198;28;20426;-77
2023/01/14 10:26:39;;;;;;;5.17;0.97;;;;;;;9.24;82.35;100766.47;5059331;28;20450;-77
2023/01/14 10:29:17;;;;;;;4.80;0.90;;;;;;;9.22;77.89;100768.66;5059223;28;20470;-77
2023/01/14 10:31:48;;;;;;;6.20;1.00;;;;;;;9.31;80.44;100761.53;5059614;28;20448;-77
2023/01/14 10:34:25;;;;;;;6.60;1.23;;;;;;;9.33;77.38;100759.31;5056700;28;20464;-77
2023/01/14 10:36:52;;;;;;;4.30;0.93;;;;;;;9.38;77.37;100754.94;5058276;28;20509;-77
2023/01/14 10:39:19;;;;;;;5.13;0.80;;;;;;;9.46;77.71;100746.22;5063883;28;20470;-78
2023/01/14 10:41:50;;;;;;;5.53;1.10;;;;;;;9.49;76.98;100737.53;5061111;28;20450;-78
2023/01/14 10:44:23;;;;;;;6.80;1.10;;;;;;;9.44;76.71;100737.59;5063213;28;20895;-78
2023/01/14 10:46:52;;;;;;;5.40;1.30;;;;;;;9.44;77.58;100741.09;5061303;28;20415;-78
2023/01/14 10:49:22;;;;;;;16.10;1.57;;;;;;;9.37;76.00;100737.13;5060650;28;20460;-78
2023/01/14 10:51:50;;;;;;;5.43;1.10;;;;;;;9.41;77.79;100730.06;5059377;28;20500;-77
2023/01/14 10:54:19;;;;;;;11.10;1.67;;;;;;;9.41;77.48;100721.94;5059495;28;20446;-77
2023/01/14 10:56:53;;;;;;;5.07;1.13;;;;;;;9.52;78.47;100723.44;5061725;28;20537;-79
2023/01/14 10:59:43;;;;;;;9.83;1.27;;;;;;;9.63;77.36;100732.22;5060052;28;20945;-78
2023/01/14 11:02:23;;;;;;;6.83;1.67;;;;;;;9.64;76.70;100721.09;5061168;28;20858;-78
2023/01/14 11:04:50;;;;;;;11.63;1.33;;;;;;;9.67;75.70;100712.41;5059209;28;20434;-78
2023/01/14 11:07:25;;;;;;;10.07;1.37;;;;;;;9.66;74.36;100697.28;5059182;28;20454;-77
2023/01/14 11:09:53;;;;;;;14.33;1.90;;;;;;;9.64;74.25;100693.25;5058395;28;20516;-78
2023/01/14 11:12:29;;;;;;;5.13;0.90;;;;;;;9.66;75.21;100694.56;5057070;28;20514;-78
2023/01/14 11:14:56;;;;;;;4.80;1.00;;;;;;;9.74;75.98;100682.28;5057839;28;20528;-78
2023/01/14 11:17:24;;;;;;;6.37;1.20;;;;;;;9.80;73.74;100684.63;5059376;28;20502;-78
2023/01/14 11:19:51;;;;;;;13.23;1.23;;;;;;;9.70;72.31;100682.06;5058598;28;20467;-79
2023/01/14 11:22:19;;;;;;;5.47;1.10;;;;;;;9.73;74.39;100686.88;5060016;28;20488;-78
2023/01/14 11:24:49;;;;;;;8.47;1.37;;;;;;;9.69;74.08;100680.44;5058196;28;20470;-78
2023/01/14 11:27:18;;;;;;;8.53;1.53;;;;;;;9.66;73.22;100674.84;5059131;28;20430;-78
2023/01/14 11:29:49;;;;;;;6.73;1.50;;;;;;;9.65;74.23;100663.22;5058285;28;20520;-78
2023/01/14 11:32:21;;;;;;;14.27;1.93;;;;;;;9.62;73.28;100652.19;5059825;28;20447;-77
2023/01/14 11:34:50;;;;;;;5.70;1.03;;;;;;;9.60;74.66;100649.75;5056591;28;20505;-77
2023/01/14 11:37:20;;;;;;;4.53;1.17;;;;;;;9.65;72.63;100646.16;5058144;28;20473;-77
2023/01/14 11:39:49;;;;;;;6.27;1.00;;;;;;;9.70;73.69;100644.22;5054217;28;20554;-76
2023/01/14 11:42:29;;;;;;;12.33;1.27;;;;;;;9.70;75.03;100648.81;5054242;28;20514;-76
2023/01/14 11:44:58;;;;;;;5.77;1.27;;;;;;;9.76;73.29;100640.31;5054440;28;20466;-77
2023/01/14 11:47:26;;;;;;;6.03;0.90;;;;;;;9.74;72.80;100633.59;5055622;28;20489;-77
2023/01/14 11:50:12;;;;;;;10.43;2.60;;;;;;;9.71;73.54;100623.38;5054350;28;20473;-77
2023/01/14 11:52:39;;;;;;;4.30;0.90;;;;;;;9.59;75.97;100616.50;5054876;28;20473;-77
2023/01/14 11:55:13;;;;;;;8.50;1.00;;;;;;;9.60;74.58;100603.78;5054802;28;20514;-77
2023/01/14 11:57:42;;;;;;;10.77;1.03;;;;;;;9.61;74.74;100602.69;5054652;28;20554;-77
2023/01/14 12:00:14;;;;;;;7.90;0.90;;;;;;;9.66;73.02;100594.50;5055111;28;20462;-77
2023/01/14 12:02:44;;;;;;;4.80;1.00;;;;;;;9.64;73.93;100585.88;5055439;28;20449;-78
2023/01/14 12:05:15;;;;;;;4.53;0.70;;;;;;;9.57;72.56;100578.16;5054844;28;20450;-76
2023/01/14 12:07:47;;;;;;;9.07;1.27;;;;;;;9.49;72.75;100567.19;5054666;28;20418;-77